createdAt,value
2022-11-05T00:01:30.961Z,1.90
2022-11-05T00:04:19.203Z,1.92
2022-11-05T00:07:07.819Z,1.52
2022-11-05T00:09:38.132Z,1.27
2022-11-05T00:12:32.906Z,1.58
2022-11-05T00:15:21.144Z,1.48
2022-11-05T00:17:51.619Z,1.30
2022-11-05T00:20:21.830Z,1.52
2022-11-05T00:23:11.243Z,1.35
2022-11-05T00:25:41.896Z,1.40
2022-11-05T00:28:12.355Z,1.20
2022-11-05T00:30:42.470Z,1.00
2022-11-05T00:33:13.374Z,1.30
2022-11-05T00:35:43.703Z,0.90
2022-11-05T00:38:14.265Z,0.85
2022-11-05T00:40:44.401Z,1.10
2022-11-05T00:43:32.906Z,1.17
2022-11-05T00:46:02.999Z,1.73
2022-11-05T00:48:51.687Z,1.67
2022-11-05T00:51:24.719Z,1.25
2022-11-05T00:53:55.297Z,1.20
2022-11-05T00:56:25.371Z,1.50
2022-11-05T00:58:57.604Z,1.70
2022-11-05T01:01:27.733Z,3.40
2022-11-05T01:03:58.340Z,2.08
2022-11-05T01:06:28.461Z,2.13
2022-11-05T01:08:58.927Z,1.60
2022-11-05T01:11:34.925Z,1.63
2022-11-05T01:14:08.936Z,1.65
2022-11-05T01:16:40.001Z,1.17
2022-11-05T01:19:12.614Z,2.05
2022-11-05T01:21:42.740Z,1.48
2022-11-05T01:26:42.446Z,1.30
2022-11-05T01:29:12.845Z,2.22
2022-11-05T01:31:45.706Z,2.35
2022-11-05T01:34:15.846Z,2.17
2022-11-05T01:39:15.537Z,2.03
2022-11-05T01:41:46.083Z,2.80
2022-11-05T01:44:53.200Z,3.28
2022-11-05T01:47:50.223Z,2.97
2022-11-05T01:50:58.272Z,3.50
2022-11-05T01:53:49.478Z,2.97
2022-11-05T01:56:39.056Z,3.95
2022-11-05T01:59:15.706Z,2.60
2022-11-05T02:01:46.609Z,2.05
2022-11-05T02:04:23.939Z,2.40
2022-11-05T02:06:54.641Z,2.22
2022-11-05T02:09:31.108Z,2.25
2022-11-05T02:12:01.607Z,1.92
2022-11-05T02:14:31.570Z,1.65
2022-11-05T02:17:13.369Z,1.88
2022-11-05T02:20:24.654Z,1.80
2022-11-05T02:23:24.573Z,2.25
2022-11-05T02:26:05.681Z,2.45
2022-11-05T02:29:00.246Z,2.05
2022-11-05T02:32:20.712Z,2.20
2022-11-05T02:34:57.112Z,2.17
2022-11-05T02:37:47.681Z,1.90
2022-11-05T02:40:28.899Z,2.00
2022-11-05T02:43:22.324Z,2.05
2022-11-05T02:45:58.711Z,2.35
2022-11-05T02:48:38.160Z,2.00
2022-11-05T02:51:34.061Z,1.98
2022-11-05T02:54:11.143Z,1.63
2022-11-05T02:56:46.397Z,1.92
2022-11-05T02:59:16.381Z,2.50
2022-11-05T03:01:48.739Z,1.90
2022-11-05T03:04:21.046Z,2.10
2022-11-05T03:07:13.615Z,2.38
2022-11-05T03:09:52.588Z,2.08
2022-11-05T03:12:55.295Z,2.00
2022-11-05T03:15:58.128Z,1.88
2022-11-05T03:18:52.695Z,2.10
2022-11-05T03:21:30.835Z,2.33
2022-11-05T03:24:07.759Z,2.10
2022-11-05T03:26:51.769Z,1.70
2022-11-05T03:32:00.961Z,2.67
2022-11-05T03:34:39.849Z,2.15
2022-11-05T03:37:11.251Z,2.10
2022-11-05T03:39:45.333Z,2.08
2022-11-05T03:42:18.615Z,2.20
2022-11-05T03:44:58.911Z,2.20
2022-11-05T03:47:35.754Z,2.22
2022-11-05T03:50:24.354Z,2.47
2022-11-05T03:53:21.963Z,1.90
2022-11-05T03:56:09.558Z,2.30
2022-11-05T03:58:45.322Z,2.40
2022-11-05T04:01:16.069Z,2.17
2022-11-05T04:03:48.874Z,2.33
2022-11-05T04:06:37.454Z,2.10
2022-11-05T04:09:25.739Z,2.60
2022-11-05T04:12:14.587Z,2.00
2022-11-05T04:14:45.042Z,2.42
2022-11-05T04:17:14.962Z,2.03
2022-11-05T04:20:06.940Z,1.85
2022-11-05T04:22:56.183Z,2.20
2022-11-05T04:25:26.600Z,2.58
2022-11-05T04:28:01.570Z,2.40
2022-11-05T04:30:31.999Z,2.83
2022-11-05T04:33:06.044Z,2.45
2022-11-05T04:35:39.600Z,2.15
2022-11-05T04:38:12.834Z,2.20
2022-11-05T04:40:43.733Z,2.17
2022-11-05T04:43:19.553Z,2.13
2022-11-05T04:45:51.013Z,1.90
2022-11-05T04:48:21.098Z,1.80
2022-11-05T04:50:50.832Z,2.03
2022-11-05T04:53:21.927Z,2.40
2022-11-05T04:58:21.858Z,2.22
2022-11-05T05:00:52.020Z,1.80
2022-11-05T05:03:22.594Z,2.03
2022-11-05T05:05:53.937Z,2.40
2022-11-05T05:08:24.657Z,1.88
2022-11-05T05:10:54.604Z,2.47
2022-11-05T05:13:25.089Z,3.45
2022-11-05T05:15:54.833Z,2.90
2022-11-05T05:18:27.376Z,2.97
2022-11-05T05:21:19.491Z,3.08
2022-11-05T05:23:50.398Z,2.15
2022-11-05T05:26:20.506Z,3.50
2022-11-05T05:28:50.949Z,4.45
2022-11-05T05:31:21.233Z,4.03
2022-11-05T05:36:20.912Z,4.68
2022-11-05T05:38:51.050Z,4.60
2022-11-05T05:41:22.192Z,3.83
2022-11-05T05:43:52.635Z,3.55
2022-11-05T05:46:22.973Z,3.35
2022-11-05T05:48:53.844Z,3.20
2022-11-05T05:51:24.302Z,3.83
2022-11-05T05:53:55.910Z,3.60
2022-11-05T05:56:26.412Z,3.58
2022-11-05T05:58:56.663Z,3.88
2022-11-05T06:03:56.372Z,3.00
2022-11-05T06:06:26.357Z,2.83
2022-11-05T06:08:57.605Z,3.17
2022-11-05T06:11:27.860Z,2.30
2022-11-05T06:13:58.779Z,3.03
2022-11-05T06:16:29.731Z,2.58
2022-11-05T06:19:00.147Z,2.97
2022-11-05T06:21:30.281Z,2.95
2022-11-05T06:24:03.404Z,2.47
2022-11-05T06:26:33.466Z,3.22
2022-11-05T06:29:03.881Z,2.15
2022-11-05T06:31:33.915Z,2.95
2022-11-05T06:34:04.422Z,3.33
2022-11-05T06:36:34.904Z,2.65
2022-11-05T06:39:05.716Z,3.00
2022-11-05T06:41:56.878Z,3.10
2022-11-05T06:44:29.409Z,3.85
2022-11-05T06:46:59.374Z,2.85
2022-11-05T06:49:29.715Z,3.95
2022-11-05T06:52:00.124Z,4.43
2022-11-05T06:54:30.473Z,4.03
2022-11-05T06:57:00.450Z,3.83
2022-11-05T06:59:30.804Z,3.38
2022-11-05T07:02:00.938Z,4.88
2022-11-05T07:04:31.631Z,3.95
2022-11-05T07:07:04.691Z,3.08
2022-11-05T07:09:35.154Z,2.78
2022-11-05T07:12:05.415Z,3.30
2022-11-05T07:14:36.285Z,3.85
2022-11-05T07:17:07.273Z,3.78
2022-11-05T07:19:37.613Z,4.45
2022-11-05T07:22:07.618Z,4.43
2022-11-05T07:24:38.254Z,3.92
2022-11-05T07:27:08.335Z,4.03
2022-11-05T07:29:38.744Z,4.80
2022-11-05T07:32:08.946Z,5.30
2022-11-05T07:34:39.355Z,4.50
2022-11-05T07:37:09.414Z,4.95
2022-11-05T07:39:39.805Z,5.68
2022-11-05T07:42:15.277Z,5.22
2022-11-05T07:44:45.657Z,4.97
2022-11-05T07:47:15.667Z,4.30
2022-11-05T07:50:15.697Z,6.65
2022-11-05T07:52:45.887Z,4.38
2022-11-05T07:55:17.184Z,3.83
2022-11-05T07:57:52.511Z,4.32
2022-11-05T08:00:25.043Z,4.07
2022-11-05T08:03:08.539Z,3.95
2022-11-05T08:05:51.085Z,4.03
2022-11-05T08:08:22.218Z,4.75
2022-11-05T08:10:53.149Z,5.68
2022-11-05T08:13:23.247Z,5.82
2022-11-05T08:15:53.701Z,6.03
2022-11-05T08:18:23.724Z,5.97
2022-11-05T08:20:54.123Z,4.82
2022-11-05T08:23:24.188Z,9.10
2022-11-05T08:25:54.863Z,5.07
2022-11-05T08:28:26.594Z,2.60
2022-11-05T08:30:58.346Z,2.30
2022-11-05T08:33:30.595Z,2.80
2022-11-05T08:36:04.732Z,2.53
2022-11-05T08:38:34.895Z,2.72
2022-11-05T08:41:05.982Z,2.70
2022-11-05T08:43:36.072Z,3.40
2022-11-05T08:46:05.914Z,3.90
2022-11-05T08:48:36.453Z,4.25
2022-11-05T08:51:06.533Z,6.35
2022-11-05T08:53:37.132Z,6.07
2022-11-05T08:56:07.311Z,8.15
2022-11-05T09:01:07.556Z,8.95
2022-11-05T09:03:38.384Z,4.72
2022-11-05T09:06:08.949Z,7.22
2022-11-05T09:08:39.323Z,6.43
2022-11-05T09:11:09.282Z,8.18
2022-11-05T09:13:39.857Z,7.88
2022-11-05T09:16:26.401Z,9.30
2022-11-05T09:18:58.046Z,11.10
2022-11-05T09:21:28.074Z,10.00
2022-11-05T09:23:58.230Z,9.95
2022-11-05T09:26:28.698Z,10.38
2022-11-05T09:28:58.706Z,4.65
2022-11-05T09:31:29.399Z,4.38
2022-11-05T09:33:59.390Z,2.67
2022-11-05T09:36:29.832Z,2.95
2022-11-05T09:38:59.963Z,2.83
2022-11-05T09:44:20.829Z,3.58
2022-11-05T09:47:04.411Z,2.60
2022-11-05T09:49:42.801Z,3.03
2022-11-05T09:52:21.047Z,3.10
2022-11-05T09:54:52.710Z,2.70
2022-11-05T09:57:50.519Z,2.65
2022-11-05T10:00:20.758Z,2.80
2022-11-05T10:02:58.630Z,2.85
2022-11-05T10:05:29.985Z,2.22
2022-11-05T10:08:14.089Z,2.50
2022-11-05T10:10:51.480Z,2.83
2022-11-05T10:13:45.849Z,2.60
2022-11-05T10:16:21.593Z,2.60
2022-11-05T10:19:17.199Z,2.38
2022-11-05T10:24:38.109Z,2.17
2022-11-05T10:27:16.929Z,2.00
2022-11-05T10:29:48.483Z,2.05
2022-11-05T10:32:35.413Z,2.20
2022-11-05T10:35:09.422Z,2.10
2022-11-05T10:37:41.190Z,2.22
2022-11-05T10:40:36.211Z,1.80
2022-11-05T10:43:41.970Z,2.25
2022-11-05T10:46:33.641Z,1.90
2022-11-05T10:49:44.734Z,1.80
2022-11-05T10:52:32.752Z,1.80
2022-11-05T10:55:24.877Z,1.50
2022-11-05T10:57:55.642Z,1.75
2022-11-05T11:00:29.548Z,1.35
2022-11-05T11:03:02.799Z,1.45
2022-11-05T11:05:39.887Z,1.67
2022-11-05T11:08:13.075Z,1.67
2022-11-05T11:11:07.961Z,1.98
2022-11-05T11:13:59.601Z,1.75
2022-11-05T11:16:35.014Z,1.95
2022-11-05T11:19:10.764Z,1.70
2022-11-05T11:21:42.891Z,1.50
2022-11-05T11:24:24.298Z,1.65
2022-11-05T11:26:54.394Z,1.23
2022-11-05T11:29:30.013Z,1.60
2022-11-05T11:32:04.194Z,1.42
2022-11-05T11:34:43.002Z,1.40
2022-11-05T11:37:19.686Z,1.80
2022-11-05T11:40:04.138Z,1.95
2022-11-05T11:42:42.157Z,1.90
2022-11-05T11:45:20.411Z,1.83
2022-11-05T11:47:52.185Z,1.70
2022-11-05T11:50:44.379Z,1.48
2022-11-05T11:53:23.140Z,1.42
2022-11-05T11:56:20.361Z,1.50
2022-11-05T11:59:03.995Z,1.33
2022-11-05T12:01:46.802Z,2.05
2022-11-05T12:04:41.353Z,1.63
2022-11-05T12:07:45.345Z,1.60
2022-11-05T12:10:24.340Z,1.30
2022-11-05T12:13:00.424Z,1.13
2022-11-05T12:16:20.718Z,1.42
2022-11-05T12:18:59.801Z,1.10
2022-11-05T12:21:53.488Z,1.40
2022-11-05T12:24:48.723Z,1.13
2022-11-05T12:27:49.486Z,1.77
2022-11-05T12:30:24.686Z,1.13
2022-11-05T12:33:48.676Z,0.77
2022-11-05T12:39:31.214Z,1.17
2022-11-05T12:42:16.209Z,1.60
2022-11-05T12:45:03.434Z,1.42
2022-11-05T12:47:45.685Z,1.33
2022-11-05T12:50:18.256Z,1.10
2022-11-05T12:53:00.302Z,0.95
2022-11-05T12:55:48.585Z,1.30
2022-11-05T12:58:59.754Z,1.00
2022-11-05T13:01:38.936Z,1.00
2022-11-05T13:04:32.453Z,1.17
2022-11-05T13:07:07.114Z,1.13
2022-11-05T13:09:50.859Z,1.35
2022-11-05T13:15:00.377Z,0.90
2022-11-05T13:17:40.198Z,1.35
2022-11-05T13:20:31.012Z,1.27
2022-11-05T13:23:08.396Z,0.98
2022-11-05T13:25:46.848Z,1.23
2022-11-05T13:28:38.526Z,1.10
2022-11-05T13:31:15.088Z,1.00
2022-11-05T13:33:47.674Z,0.80
2022-11-05T13:37:06.792Z,1.08
2022-11-05T13:39:44.644Z,1.15
2022-11-05T13:42:41.062Z,1.15
2022-11-05T13:45:47.499Z,0.93
2022-11-05T13:48:46.759Z,0.73
2022-11-05T13:51:38.860Z,0.90
2022-11-05T13:54:34.395Z,1.08
2022-11-05T13:57:13.316Z,0.75
2022-11-05T14:00:05.758Z,0.90
2022-11-05T14:02:51.539Z,0.88
2022-11-05T14:05:34.383Z,0.70
2022-11-05T14:08:17.743Z,1.00
2022-11-05T14:11:21.231Z,0.90
2022-11-05T14:13:56.615Z,1.05
2022-11-05T14:16:41.451Z,1.02
2022-11-05T14:19:20.806Z,1.17
2022-11-05T14:21:56.458Z,0.70
2022-11-05T14:24:39.885Z,0.90
2022-11-05T14:27:11.423Z,0.68
2022-11-05T14:29:51.803Z,1.08
2022-11-05T14:32:22.253Z,0.68
2022-11-05T14:35:26.282Z,0.82
2022-11-05T14:38:01.637Z,0.93
2022-11-05T14:40:39.950Z,0.73
2022-11-05T14:43:16.782Z,0.90
2022-11-05T14:46:07.768Z,0.82
2022-11-05T14:49:09.449Z,1.08
2022-11-05T14:51:47.835Z,1.02
2022-11-05T14:54:33.305Z,0.80
2022-11-05T14:57:07.342Z,0.77
2022-11-05T14:59:59.735Z,0.77
2022-11-05T15:02:39.800Z,0.70
2022-11-05T15:05:42.518Z,0.90
2022-11-05T15:08:28.611Z,0.60
2022-11-05T15:11:10.080Z,0.70
2022-11-05T15:13:53.405Z,1.00
2022-11-05T15:16:50.594Z,1.08
2022-11-05T15:19:23.897Z,0.80
2022-11-05T15:21:56.259Z,0.80
2022-11-05T15:24:31.299Z,1.17
2022-11-05T15:27:18.848Z,0.63
2022-11-05T15:29:50.053Z,1.05
2022-11-05T15:32:25.154Z,0.57
2022-11-05T15:34:57.164Z,0.82
2022-11-05T15:37:29.062Z,0.65
2022-11-05T15:40:00.298Z,0.68
2022-11-05T15:42:31.032Z,1.27
2022-11-05T15:45:02.120Z,0.90
2022-11-05T15:47:37.932Z,0.50
2022-11-05T15:50:16.640Z,0.68
2022-11-05T15:53:04.813Z,0.85
2022-11-05T15:55:58.714Z,0.88
2022-11-05T15:58:29.439Z,0.77
2022-11-05T16:00:59.655Z,1.00
2022-11-05T16:03:36.694Z,0.80
2022-11-05T16:06:13.708Z,1.00
2022-11-05T16:11:25.950Z,1.25
2022-11-05T16:14:19.514Z,1.00
2022-11-05T16:16:49.886Z,1.40
2022-11-05T16:19:40.187Z,1.25
2022-11-05T16:22:11.545Z,1.20
2022-11-05T16:24:41.705Z,1.40
2022-11-05T16:27:24.793Z,1.40
2022-11-05T16:29:57.493Z,0.70
2022-11-05T16:32:32.755Z,0.90
2022-11-05T16:35:05.741Z,0.65
2022-11-05T16:37:45.194Z,0.90
2022-11-05T16:40:23.847Z,0.50
2022-11-05T16:45:27.020Z,1.15
2022-11-05T16:47:57.707Z,0.43
2022-11-05T16:50:33.187Z,0.75
2022-11-05T16:53:03.811Z,0.80
2022-11-05T16:55:36.866Z,0.65
2022-11-05T16:58:15.946Z,0.80
2022-11-05T17:00:46.001Z,0.90
2022-11-05T17:03:16.839Z,0.90
2022-11-05T17:05:47.481Z,0.68
2022-11-05T17:08:17.831Z,0.63
2022-11-05T17:10:48.390Z,0.85
2022-11-05T17:13:19.907Z,0.82
2022-11-05T17:15:52.239Z,0.80
2022-11-05T17:18:22.658Z,0.47
2022-11-05T17:20:55.837Z,0.70
2022-11-05T17:23:31.297Z,0.90
2022-11-05T17:26:05.650Z,0.90
2022-11-05T17:28:36.438Z,0.80
2022-11-05T17:31:14.581Z,0.70
2022-11-05T17:33:45.633Z,0.63
2022-11-05T17:36:17.586Z,0.82
2022-11-05T17:38:47.693Z,0.75
2022-11-05T17:41:21.134Z,0.90
2022-11-05T17:43:59.005Z,0.77
2022-11-05T17:46:30.037Z,0.50
2022-11-05T17:49:00.230Z,0.70
2022-11-05T17:51:33.242Z,0.60
2022-11-05T17:54:03.421Z,0.65
2022-11-05T17:56:35.598Z,0.63
2022-11-05T17:59:08.350Z,1.17
2022-11-05T18:01:44.397Z,1.08
2022-11-05T18:04:14.654Z,0.50
2022-11-05T18:06:45.249Z,0.73
2022-11-05T18:09:16.078Z,1.38
2022-11-05T18:11:46.751Z,0.90
2022-11-05T18:14:23.732Z,0.77
2022-11-05T18:17:00.384Z,0.70
2022-11-05T18:19:31.234Z,0.70
2022-11-05T18:22:01.755Z,0.57
2022-11-05T18:24:31.986Z,0.40
2022-11-05T18:27:02.555Z,0.88
2022-11-05T18:29:32.617Z,0.70
2022-11-05T18:32:03.302Z,0.68
2022-11-05T18:34:33.989Z,0.90
2022-11-05T18:37:04.814Z,0.90
2022-11-05T18:39:34.886Z,0.80
2022-11-05T18:42:05.487Z,0.73
2022-11-05T18:44:39.173Z,0.88
2022-11-05T18:47:10.342Z,0.73
2022-11-05T18:49:43.361Z,0.70
2022-11-05T18:52:14.307Z,0.90
2022-11-05T18:54:44.653Z,0.70
2022-11-05T18:57:15.226Z,1.10
2022-11-05T18:59:48.044Z,0.80
2022-11-05T19:02:18.730Z,0.63
2022-11-05T19:05:13.873Z,0.60
2022-11-05T19:07:40.825Z,0.50
2022-11-05T19:10:11.275Z,0.68
2022-11-05T19:12:41.915Z,0.60
2022-11-05T19:15:12.342Z,0.90
2022-11-05T19:17:42.897Z,0.70
2022-11-05T19:20:16.007Z,0.90
2022-11-05T19:22:46.533Z,0.98
2022-11-05T19:25:16.591Z,0.88
2022-11-05T19:27:46.961Z,0.70
2022-11-05T19:30:17.450Z,0.93
2022-11-05T19:32:48.061Z,0.70
2022-11-05T19:35:18.570Z,0.80
2022-11-05T19:37:51.420Z,0.80
2022-11-05T19:40:22.258Z,1.10
2022-11-05T19:42:55.126Z,0.80
2022-11-05T19:50:50.112Z,0.82
2022-11-05T19:53:21.009Z,0.80
2022-11-05T19:55:54.067Z,0.40
2022-11-05T19:58:25.656Z,0.80
2022-11-05T20:00:57.278Z,0.65
2022-11-05T20:03:27.825Z,0.57
2022-11-05T20:06:08.222Z,0.55
2022-11-05T20:08:53.308Z,0.60
2022-11-05T20:11:29.036Z,0.77
2022-11-05T20:13:59.817Z,0.80
2022-11-05T20:16:38.016Z,0.90
2022-11-05T20:19:15.514Z,0.85
2022-11-05T20:21:45.832Z,0.60
2022-11-05T20:24:24.236Z,0.77
2022-11-05T20:26:56.817Z,1.00
2022-11-05T20:29:34.706Z,0.68
2022-11-05T20:32:08.689Z,0.60
2022-11-05T20:34:39.401Z,0.80
2022-11-05T20:37:09.802Z,0.68
2022-11-05T20:39:40.595Z,0.82
2022-11-05T20:42:10.754Z,0.60
2022-11-05T20:44:42.130Z,0.80
2022-11-05T20:47:12.825Z,0.63
2022-11-05T20:49:43.918Z,0.88
2022-11-05T20:52:16.271Z,0.50
2022-11-05T20:54:48.266Z,0.70
2022-11-05T20:57:18.357Z,0.85
2022-11-05T20:59:49.406Z,0.90
2022-11-05T21:02:21.427Z,0.50
2022-11-05T21:04:53.067Z,0.77
2022-11-05T21:07:24.051Z,0.70
2022-11-05T21:09:54.818Z,0.65
2022-11-05T21:12:24.915Z,0.88
2022-11-05T21:14:55.299Z,0.88
2022-11-05T21:17:25.316Z,0.70
2022-11-05T21:19:55.688Z,0.70
2022-11-05T21:22:25.859Z,0.65
2022-11-05T21:24:57.940Z,0.77
2022-11-05T21:27:28.198Z,0.60
2022-11-05T21:29:58.625Z,0.80
2022-11-05T21:32:28.750Z,0.55
2022-11-05T21:34:59.611Z,0.60
2022-11-05T21:37:29.912Z,0.75
2022-11-05T21:40:00.344Z,0.73
2022-11-05T21:42:31.469Z,1.13
2022-11-05T21:45:02.545Z,0.60
2022-11-05T21:47:32.626Z,1.10
2022-11-05T21:50:03.236Z,0.50
2022-11-05T21:52:51.869Z,0.63
2022-11-05T21:55:42.426Z,0.60
2022-11-05T21:58:37.724Z,0.77
2022-11-05T22:01:08.274Z,0.60
2022-11-05T22:06:08.069Z,1.00
2022-11-05T22:08:38.723Z,0.75
2022-11-05T22:11:08.751Z,1.27
2022-11-05T22:13:39.132Z,0.90
2022-11-05T22:16:09.842Z,0.77
2022-11-05T22:18:40.249Z,0.70
2022-11-05T22:21:10.246Z,0.82
2022-11-05T22:23:43.166Z,0.68
2022-11-05T22:26:13.116Z,0.80
2022-11-05T22:28:43.198Z,0.85
2022-11-05T22:31:17.850Z,0.93
2022-11-05T22:33:48.262Z,0.82
2022-11-05T22:36:18.800Z,0.80
2022-11-05T22:38:48.881Z,0.68
2022-11-05T22:41:21.634Z,0.85
2022-11-05T22:43:51.677Z,0.80
2022-11-05T22:46:25.638Z,1.00
2022-11-05T22:48:57.303Z,0.80
2022-11-05T22:51:31.403Z,0.80
2022-11-05T22:54:02.342Z,0.90
2022-11-05T22:56:37.118Z,0.90
2022-11-05T22:59:09.968Z,1.05
2022-11-05T23:01:41.259Z,0.68
2022-11-05T23:04:14.300Z,0.80
2022-11-05T23:07:03.381Z,1.02
2022-11-05T23:09:54.462Z,0.85
2022-11-05T23:12:29.659Z,0.73
2022-11-05T23:15:01.775Z,0.93
2022-11-05T23:17:50.180Z,0.98
2022-11-05T23:20:43.240Z,0.90
2022-11-05T23:23:32.584Z,0.95
2022-11-05T23:26:23.004Z,1.00
2022-11-05T23:28:53.480Z,1.20
2022-11-05T23:31:55.581Z,1.10
2022-11-05T23:34:25.998Z,1.42
2022-11-05T23:37:13.937Z,1.27
2022-11-05T23:39:44.720Z,0.73
2022-11-05T23:42:32.978Z,0.80
2022-11-05T23:45:21.931Z,1.23
2022-11-05T23:48:10.780Z,1.27
2022-11-05T23:50:42.080Z,0.90
2022-11-05T23:53:14.989Z,1.05
2022-11-05T23:55:45.521Z,0.90
2022-11-05T23:58:16.334Z,0.88
